Log in Register

Login to your account

Username *
Password *
Remember Me

Create an account

Fields marked with an asterisk (*) are required.
Name *
Username *
Password *
Verify password *
Email *
Verify email *

Nous contacter

 Téléphone : +33 (0)4 79 54 41 81

Coordonnées détaillées et accès : cliquez ici

 
LFLB °C
    Ferienhaus Ostsee
[source: ADDS]
METAR
LFLB 270930Z AUTO 36013KT 9999 BKN028 BKN034 10/05 Q1027 TEMPO 35015G25KT =
TAF LFLB 270800Z 2709/2809 35015KT 9999 OVC026 TEMPO 2709/2809 35015G25KT BECMG 2711/2715 CAVOK
TAF
TAF LFLB 270800Z 2709/2809 35015KT 9999 OVC026 TEMPO 2709/2809 35015G25KT BECMG 2711/2715 CAVOK =
SR / SS: 06:17 / 17:20 UTC (Lever/Coucher du soleil le 2021-02-27)
JSN Boot template designed by JoomlaShine.com